Time;durP1;ratioP1;P1;durP2;ratioP2;P2;SDS_P1;SDS_P2;PMS_P1;PMS_P2;Temp;Humidity;BMP_temperature;BMP_pressure;BME280_temperature;BME280_humidity;BME280_pressure;Samples;Min_cycle;Max_cycle;Signal;HPM_P1;HPM_P2
2023/09/26 00:01:26;;;;;;;53.50;30.83;;;;;;;;;;4876383;29;20048;-81
2023/09/26 00:04:11;;;;;;;50.20;27.83;;;;;;;;;;4877065;29;20052;-81
2023/09/26 00:06:59;;;;;;;51.70;27.77;;;;;;;;;;4878043;29;20056;-81
2023/09/26 00:09:44;;;;;;;56.25;29.98;;;;;;;;;;4882803;29;20491;-81
2023/09/26 00:12:30;;;;;;;49.15;30.13;;;;;;;;;;4888253;29;20044;-80
2023/09/26 00:15:15;;;;;;;52.10;28.77;;;;;;;;;;4868531;29;20056;-80
2023/09/26 00:18:02;;;;;;;45.08;27.20;;;;;;;;;;4887822;29;20052;-81
2023/09/26 00:20:48;;;;;;;49.60;28.15;;;;;;;;;;4881466;29;20048;-79
2023/09/26 00:23:35;;;;;;;44.17;27.95;;;;;;;;;;4882345;29;20464;-79
2023/09/26 00:26:21;;;;;;;47.63;27.70;;;;;;;;;;4885357;29;20401;-81
2023/09/26 00:29:07;;;;;;;47.08;27.60;;;;;;;;;;4881718;29;20400;-80
2023/09/26 00:31:53;;;;;;;43.33;28.15;;;;;;;;;;4882713;29;20453;-82
2023/09/26 00:34:38;;;;;;;48.83;28.65;;;;;;;;;;4876312;29;20056;-79
2023/09/26 00:37:23;;;;;;;50.80;28.58;;;;;;;;;;4876570;29;20452;-80
2023/09/26 00:40:18;;;;;;;42.22;27.60;;;;;;;;;;4868660;29;20056;-80
2023/09/26 00:43:03;;;;;;;46.78;27.25;;;;;;;;;;4882696;29;20044;-80
2023/09/26 00:45:53;;;;;;;47.20;28.08;;;;;;;;;;4876086;29;20404;-80
2023/09/26 00:48:39;;;;;;;43.42;27.27;;;;;;;;;;4875741;29;20484;-81
2023/09/26 00:51:24;;;;;;;50.17;29.10;;;;;;;;;;4876712;29;20453;-82
2023/09/26 00:54:10;;;;;;;45.22;26.70;;;;;;;;;;4874776;29;20053;-81
2023/09/26 00:56:57;;;;;;;44.17;27.30;;;;;;;;;;4881105;29;20056;-80
2023/09/26 00:59:43;;;;;;;42.63;25.80;;;;;;;;;;4876312;29;20408;-81
2023/09/26 01:02:28;;;;;;;48.00;26.58;;;;;;;;;;4867915;29;20056;-79
2023/09/26 01:05:15;;;;;;;43.50;27.60;;;;;;;;;;4875771;29;20040;-79
2023/09/26 01:08:01;;;;;;;50.05;29.08;;;;;;;;;;4881728;29;20400;-81
2023/09/26 01:10:46;;;;;;;53.28;29.90;;;;;;;;;;4867739;29;20052;-81
2023/09/26 01:13:31;;;;;;;48.67;27.95;;;;;;;;;;4874670;29;20052;-80
2023/09/26 01:16:18;;;;;;;51.08;28.52;;;;;;;;;;4881079;29;20412;-80
2023/09/26 01:19:04;;;;;;;47.58;28.48;;;;;;;;;;4880585;29;20476;-81
2023/09/26 01:21:53;;;;;;;45.17;28.38;;;;;;;;;;4882040;29;20049;-81
2023/09/26 01:24:38;;;;;;;48.78;28.00;;;;;;;;;;4866824;29;20052;-81
2023/09/26 01:27:23;;;;;;;52.58;29.88;;;;;;;;;;4875685;29;20060;-80
2023/09/26 01:30:11;;;;;;;54.53;29.70;;;;;;;;;;4861279;29;20408;-81
2023/09/26 01:32:56;;;;;;;43.83;27.33;;;;;;;;;;4875571;29;20048;-81
2023/09/26 01:35:43;;;;;;;49.67;26.23;;;;;;;;;;4880028;29;20499;-80
2023/09/26 01:38:28;;;;;;;51.33;27.77;;;;;;;;;;4879967;29;20435;-80
2023/09/26 01:41:13;;;;;;;51.25;28.98;;;;;;;;;;4874087;29;20044;-79
2023/09/26 01:43:59;;;;;;;43.25;25.98;;;;;;;;;;4873811;29;20475;-82
2023/09/26 01:46:45;;;;;;;39.67;24.98;;;;;;;;;;4875373;29;20404;-80
2023/09/26 01:49:31;;;;;;;43.80;26.58;;;;;;;;;;4875553;29;20057;-80
2023/09/26 01:52:16;;;;;;;42.40;26.65;;;;;;;;;;4875304;29;20052;-80
2023/09/26 01:55:05;;;;;;;44.00;26.42;;;;;;;;;;4861269;29;20048;-80
2023/09/26 01:57:50;;;;;;;42.80;25.40;;;;;;;;;;4860197;29;20045;-80
2023/09/26 02:00:36;;;;;;;49.25;27.15;;;;;;;;;;4867159;29;20056;-81
2023/09/26 02:03:21;;;;;;;43.55;27.30;;;;;;;;;;4874734;29;20048;-80
2023/09/26 02:06:08;;;;;;;47.28;27.08;;;;;;;;;;4874367;29;20053;-81
2023/09/26 02:08:53;;;;;;;49.53;26.98;;;;;;;;;;4881687;29;20404;-80
2023/09/26 02:11:39;;;;;;;54.88;31.08;;;;;;;;;;4867145;29;20468;-80
2023/09/26 02:14:24;;;;;;;47.88;28.42;;;;;;;;;;4872970;29;20048;-80
2023/09/26 02:17:10;;;;;;;46.50;26.38;;;;;;;;;;4873770;29;20408;-81
2023/09/26 02:19:56;;;;;;;44.05;26.63;;;;;;;;;;4866581;29;20044;-81
2023/09/26 02:22:45;;;;;;;42.17;24.67;;;;;;;;;;4865940;29;20500;-80
2023/09/26 02:25:31;;;;;;;50.10;28.15;;;;;;;;;;4873351;29;20052;-81
2023/09/26 02:28:17;;;;;;;52.85;25.48;;;;;;;;;;4873886;29;20052;-80
2023/09/26 02:31:03;;;;;;;44.80;25.77;;;;;;;;;;4861087;29;20044;-81
2023/09/26 02:33:48;;;;;;;38.42;25.23;;;;;;;;;;4861906;29;20404;-81
2023/09/26 02:36:33;;;;;;;38.30;24.10;;;;;;;;;;4866974;29;20453;-81
2023/09/26 02:39:19;;;;;;;43.08;24.23;;;;;;;;;;4874416;29;20053;-80
2023/09/26 02:42:04;;;;;;;38.60;23.05;;;;;;;;;;4873710;29;20055;-80
2023/09/26 02:44:49;;;;;;;38.92;22.45;;;;;;;;;;4880193;29;20044;-80
2023/09/26 02:47:35;;;;;;;47.38;24.27;;;;;;;;;;4873279;29;20481;-80
2023/09/26 02:50:21;;;;;;;38.67;23.70;;;;;;;;;;4873401;29;20060;-80
2023/09/26 02:53:07;;;;;;;37.92;22.73;;;;;;;;;;4874580;29;20044;-80
2023/09/26 02:55:52;;;;;;;61.28;22.48;;;;;;;;;;4881012;29;20056;-81
2023/09/26 02:58:38;;;;;;;44.53;22.17;;;;;;;;;;4873592;29;20407;-80
2023/09/26 03:01:23;;;;;;;35.25;20.75;;;;;;;;;;4873028;29;20465;-81
2023/09/26 03:04:09;;;;;;;41.55;21.40;;;;;;;;;;4880222;29;20048;-81
2023/09/26 03:06:55;;;;;;;33.72;20.88;;;;;;;;;;4880723;29;20108;-80
2023/09/26 03:09:40;;;;;;;38.53;21.25;;;;;;;;;;4874151;29;20053;-81
2023/09/26 03:12:26;;;;;;;33.50;19.42;;;;;;;;;;4880387;29;20048;-80
2023/09/26 03:15:11;;;;;;;41.95;21.88;;;;;;;;;;4872641;29;20044;-81
2023/09/26 03:17:57;;;;;;;41.50;21.25;;;;;;;;;;4866026;29;20456;-80
2023/09/26 03:20:43;;;;;;;38.70;20.65;;;;;;;;;;4873851;29;20457;-80
2023/09/26 03:23:28;;;;;;;32.22;20.63;;;;;;;;;;4873598;29;20435;-81
2023/09/26 03:26:14;;;;;;;40.58;21.95;;;;;;;;;;4874680;29;20056;-79
2023/09/26 03:28:59;;;;;;;31.85;19.30;;;;;;;;;;4873544;29;20045;-80
2023/09/26 03:31:45;;;;;;;34.28;20.20;;;;;;;;;;4874495;29;20392;-80
2023/09/26 03:34:31;;;;;;;33.90;20.17;;;;;;;;;;4860024;29;20045;-80
2023/09/26 03:37:16;;;;;;;35.28;20.75;;;;;;;;;;4875225;29;20052;-79
2023/09/26 03:40:03;;;;;;;44.97;22.10;;;;;;;;;;4878131;29;20036;-82
2023/09/26 03:42:48;;;;;;;38.40;21.23;;;;;;;;;;4882753;29;20049;-80
2023/09/26 03:45:34;;;;;;;38.58;20.60;;;;;;;;;;4877799;29;20048;-81
2023/09/26 03:48:19;;;;;;;35.33;19.83;;;;;;;;;;4876100;29;20048;-80
2023/09/26 03:51:12;;;;;;;43.80;21.60;;;;;;;;;;4877396;29;20044;-81
2023/09/26 03:53:56;;;;;;;35.20;18.92;;;;;;;;;;4877683;29;20048;-80
2023/09/26 03:56:43;;;;;;;31.20;19.58;;;;;;;;;;4883024;29;20464;-82
2023/09/26 03:59:29;;;;;;;29.67;18.55;;;;;;;;;;4881806;29;20400;-81
2023/09/26 04:02:14;;;;;;;29.10;18.27;;;;;;;;;;4876137;29;20456;-81
2023/09/26 04:04:59;;;;;;;40.30;19.83;;;;;;;;;;4876912;29;20453;-82
2023/09/26 04:07:44;;;;;;;36.72;19.42;;;;;;;;;;4876700;29;20045;-82
2023/09/26 04:10:30;;;;;;;33.38;19.63;;;;;;;;;;4883125;29;20040;-81
2023/09/26 04:13:16;;;;;;;105.45;19.77;;;;;;;;;;4883618;29;20056;-81
2023/09/26 04:16:05;;;;;;;58.30;20.25;;;;;;;;;;4869939;29;20400;-80
2023/09/26 04:18:50;;;;;;;52.40;19.20;;;;;;;;;;4876587;29;20395;-80
2023/09/26 04:21:35;;;;;;;37.63;19.77;;;;;;;;;;4877090;29;20037;-80
2023/09/26 04:24:21;;;;;;;29.77;18.58;;;;;;;;;;4874392;29;20049;-82
2023/09/26 04:27:06;;;;;;;29.90;18.42;;;;;;;;;;4861718;29;20037;-82
2023/09/26 04:29:53;;;;;;;30.05;18.65;;;;;;;;;;4877101;29;20058;-80
2023/09/26 04:32:37;;;;;;;29.30;18.13;;;;;;;;;;4866070;29;20052;-80
2023/09/26 04:35:22;;;;;;;32.75;18.13;;;;;;;;;;4875272;29;20048;-80
2023/09/26 04:38:10;;;;;;;38.85;18.60;;;;;;;;;;4882868;29;20476;-82
2023/09/26 04:40:55;;;;;;;30.65;17.63;;;;;;;;;;4876661;29;20044;-81
2023/09/26 04:43:40;;;;;;;41.47;20.20;;;;;;;;;;4882850;29;20045;-81
2023/09/26 04:46:26;;;;;;;36.13;20.13;;;;;;;;;;4876024;29;20052;-82
2023/09/26 04:49:11;;;;;;;38.20;19.85;;;;;;;;;;4882031;29;20411;-80
2023/09/26 04:51:57;;;;;;;41.65;20.85;;;;;;;;;;4882530;29;20048;-81
2023/09/26 04:54:42;;;;;;;38.20;19.20;;;;;;;;;;4875869;29;20460;-81
2023/09/26 04:57:28;;;;;;;45.80;19.90;;;;;;;;;;4875907;29;20119;-81
2023/09/26 05:00:17;;;;;;;58.55;20.80;;;;;;;;;;4881280;29;20049;-81
2023/09/26 05:03:02;;;;;;;47.42;20.63;;;;;;;;;;4876117;29;20460;-81
2023/09/26 05:05:48;;;;;;;36.67;18.80;;;;;;;;;;4882649;29;21928;-81
2023/09/26 05:08:34;;;;;;;43.95;19.95;;;;;;;;;;4876301;29;20049;-82
2023/09/26 05:11:19;;;;;;;86.40;19.27;;;;;;;;;;4881922;29;20048;-82
2023/09/26 05:14:04;;;;;;;173.52;27.48;;;;;;;;;;4875274;29;20036;-81
2023/09/26 05:16:49;;;;;;;187.43;28.52;;;;;;;;;;4867969;29;20057;-81
2023/09/26 05:19:35;;;;;;;180.02;35.35;;;;;;;;;;4875916;29;20456;-80
2023/09/26 05:22:20;;;;;;;235.85;36.70;;;;;;;;;;4882257;29;20041;-81
2023/09/26 05:25:06;;;;;;;102.28;30.63;;;;;;;;;;4882206;29;20060;-80
2023/09/26 05:27:51;;;;;;;162.52;28.35;;;;;;;;;;4881818;29;20484;-79
2023/09/26 05:30:37;;;;;;;102.28;26.90;;;;;;;;;;4861584;29;20048;-81
2023/09/26 05:33:21;;;;;;;75.00;26.85;;;;;;;;;;4877919;29;20044;-81
2023/09/26 05:36:07;;;;;;;70.72;26.02;;;;;;;;;;4874483;29;20048;-84
2023/09/26 05:38:52;;;;;;;40.03;21.67;;;;;;;;;;4880371;29;20412;-82
2023/09/26 05:41:38;;;;;;;36.53;20.17;;;;;;;;;;4867189;29;20396;-79
2023/09/26 05:44:23;;;;;;;29.40;19.52;;;;;;;;;;4875695;29;20045;-80
2023/09/26 05:47:09;;;;;;;34.13;20.35;;;;;;;;;;4881032;29;20400;-80
2023/09/26 05:49:54;;;;;;;31.35;20.48;;;;;;;;;;4875652;29;20044;-80
2023/09/26 05:52:40;;;;;;;24.33;15.95;;;;;;;;;;4875333;29;20456;-80
2023/09/26 05:55:26;;;;;;;17.75;14.25;;;;;;;;;;4881322;29;20464;-80
2023/09/26 05:58:11;;;;;;;21.27;14.68;;;;;;;;;;4873552;29;20048;-81
2023/09/26 06:00:57;;;;;;;19.08;14.15;;;;;;;;;;4881048;29;20464;-83
2023/09/26 06:03:42;;;;;;;20.15;13.07;;;;;;;;;;4878693;29;20048;-82
2023/09/26 06:06:28;;;;;;;19.50;12.70;;;;;;;;;;4885871;29;20036;-83
2023/09/26 06:09:13;;;;;;;19.75;11.70;;;;;;;;;;4880450;29;20041;-82
2023/09/26 06:11:59;;;;;;;16.35;10.80;;;;;;;;;;4886695;29;20487;-82
2023/09/26 06:14:46;;;;;;;22.65;11.30;;;;;;;;;;4886338;29;20045;-80
2023/09/26 06:17:31;;;;;;;14.55;10.38;;;;;;;;;;4879206;29;20468;-81
2023/09/26 06:20:17;;;;;;;13.80;10.02;;;;;;;;;;4885087;29;20044;-83
2023/09/26 06:23:02;;;;;;;16.50;9.70;;;;;;;;;;4884788;29;20084;-82
2023/09/26 06:26:00;;;;;;;14.27;10.60;;;;;;;;;;4881307;29;20479;-82
2023/09/26 06:28:46;;;;;;;16.15;10.25;;;;;;;;;;4881237;29;20044;-81
2023/09/26 06:31:31;;;;;;;12.10;9.88;;;;;;;;;;4879796;29;20492;-79
2023/09/26 06:34:16;;;;;;;12.70;9.98;;;;;;;;;;4874923;29;20053;-80
2023/09/26 06:37:02;;;;;;;18.60;10.77;;;;;;;;;;4874869;29;20626;-79
2023/09/26 06:39:48;;;;;;;18.20;10.55;;;;;;;;;;4873643;29;20403;-81
2023/09/26 06:42:34;;;;;;;15.52;10.63;;;;;;;;;;4873689;29;20033;-79
2023/09/26 06:45:19;;;;;;;20.23;11.40;;;;;;;;;;4877392;29;20400;-83
2023/09/26 06:48:06;;;;;;;19.73;11.07;;;;;;;;;;4879253;29;20033;-81
2023/09/26 06:50:51;;;;;;;16.92;11.73;;;;;;;;;;4880060;29;20052;-80
2023/09/26 06:53:37;;;;;;;19.77;11.85;;;;;;;;;;4879561;29;20052;-80
2023/09/26 06:56:23;;;;;;;19.25;11.90;;;;;;;;;;4881450;29;20500;-81
2023/09/26 06:59:09;;;;;;;20.52;12.90;;;;;;;;;;4874220;29;20461;-80
2023/09/26 07:01:54;;;;;;;24.10;13.98;;;;;;;;;;4881188;29;20415;-80
2023/09/26 07:04:40;;;;;;;28.85;12.75;;;;;;;;;;4874622;29;20417;-80
2023/09/26 07:07:31;;;;;;;18.23;12.50;;;;;;;;;;4873789;29;20037;-79
2023/09/26 07:10:16;;;;;;;25.33;14.43;;;;;;;;;;4874651;29;20044;-82
2023/09/26 07:13:03;;;;;;;21.08;13.05;;;;;;;;;;4884102;29;20052;-80
2023/09/26 07:15:58;;;;;;;19.85;13.50;;;;;;;;;;4870132;29;20779;-80
2023/09/26 07:18:42;;;;;;;31.10;14.85;;;;;;;;;;4883778;29;20396;-79
2023/09/26 07:21:27;;;;;;;21.15;13.85;;;;;;;;;;4877068;29;20045;-81
2023/09/26 07:24:13;;;;;;;25.83;15.63;;;;;;;;;;4884318;29;20049;-81
2023/09/26 07:26:59;;;;;;;20.88;13.20;;;;;;;;;;4877898;29;20036;-80
2023/09/26 07:29:46;;;;;;;26.00;13.38;;;;;;;;;;4877499;29;20408;-82
2023/09/26 07:32:31;;;;;;;23.88;13.52;;;;;;;;;;4877074;29;20491;-79
2023/09/26 07:35:16;;;;;;;23.73;13.40;;;;;;;;;;4883246;29;20481;-81
2023/09/26 07:38:02;;;;;;;28.02;14.65;;;;;;;;;;4881266;29;20048;-81
2023/09/26 07:40:48;;;;;;;25.80;13.45;;;;;;;;;;4881730;29;20400;-82
2023/09/26 07:43:33;;;;;;;25.70;13.40;;;;;;;;;;4883330;29;20469;-83
2023/09/26 07:46:19;;;;;;;23.80;13.02;;;;;;;;;;4883587;29;20404;-81
2023/09/26 07:49:05;;;;;;;18.45;11.55;;;;;;;;;;4868853;29;20477;-83
2023/09/26 07:51:52;;;;;;;26.20;11.07;;;;;;;;;;4877142;29;20040;-80
2023/09/26 07:54:36;;;;;;;21.98;12.77;;;;;;;;;;4876936;29;20400;-81
2023/09/26 07:57:22;;;;;;;23.60;12.50;;;;;;;;;;4882308;29;20052;-81
2023/09/26 08:00:11;;;;;;;21.20;10.30;;;;;;;;;;4882947;29;20429;-81
2023/09/26 08:02:56;;;;;;;24.33;10.43;;;;;;;;;;4876971;29;20056;-81
2023/09/26 08:05:42;;;;;;;18.05;11.05;;;;;;;;;;4883708;29;20457;-81
2023/09/26 08:08:30;;;;;;;24.35;11.35;;;;;;;;;;4868998;29;20044;-83
2023/09/26 08:11:16;;;;;;;20.17;10.75;;;;;;;;;;4877245;29;20104;-82
2023/09/26 08:14:01;;;;;;;17.58;8.93;;;;;;;;;;4883418;29;20074;-84
2023/09/26 08:16:47;;;;;;;15.25;9.52;;;;;;;;;;4875490;29;20041;-80
2023/09/26 08:19:32;;;;;;;20.50;8.95;;;;;;;;;;4876529;29;20045;-80
2023/09/26 08:22:17;;;;;;;17.52;8.80;;;;;;;;;;4882519;29;20485;-81
2023/09/26 08:25:04;;;;;;;14.85;8.27;;;;;;;;;;4876865;29;20418;-81
2023/09/26 08:27:48;;;;;;;13.48;7.72;;;;;;;;;;4874703;29;20052;-81
2023/09/26 08:30:34;;;;;;;14.93;7.40;;;;;;;;;;4882106;29;20465;-82
2023/09/26 08:33:19;;;;;;;17.58;8.23;;;;;;;;;;4877406;29;20049;-80
2023/09/26 08:36:21;;;;;;;16.48;7.38;;;;;;;;;;4875590;29;20045;-83
2023/09/26 08:39:08;;;;;;;21.20;7.38;;;;;;;;;;4882982;29;20041;-82
2023/09/26 08:41:54;;;;;;;24.42;8.25;;;;;;;;;;4874934;29;20048;-81
2023/09/26 08:44:39;;;;;;;22.55;9.10;;;;;;;;;;4875873;29;20056;-83
2023/09/26 08:47:25;;;;;;;22.73;7.70;;;;;;;;;;4882488;29;20049;-81
2023/09/26 08:50:10;;;;;;;23.23;8.43;;;;;;;;;;4881921;29;20040;-82
2023/09/26 08:52:59;;;;;;;16.30;8.15;;;;;;;;;;4876918;29;20056;-82
2023/09/26 08:55:45;;;;;;;19.40;8.52;;;;;;;;;;4869286;29;20045;-84
2023/09/26 08:58:32;;;;;;;20.45;7.90;;;;;;;;;;4874724;29;20044;-80
2023/09/26 09:01:18;;;;;;;26.60;9.45;;;;;;;;;;4882534;29;20048;-81
2023/09/26 09:04:04;;;;;;;16.38;7.88;;;;;;;;;;4882278;29;20403;-83
2023/09/26 09:07:02;;;;;;;19.08;7.80;;;;;;;;;;4882797;29;20048;-80
2023/09/26 09:10:04;;;;;;;20.92;7.60;;;;;;;;;;4876285;29;20052;-81
2023/09/26 09:13:01;;;;;;;17.48;7.20;;;;;;;;;;4880924;29;20044;-81
2023/09/26 09:15:46;;;;;;;17.60;6.80;;;;;;;;;;4882248;29;20045;-81
2023/09/26 09:18:32;;;;;;;18.13;7.20;;;;;;;;;;4881540;29;20052;-79
2023/09/26 09:21:31;;;;;;;16.95;7.20;;;;;;;;;;4880942;29;20060;-82
2023/09/26 09:24:16;;;;;;;12.73;6.82;;;;;;;;;;4881550;29;20449;-80
2023/09/26 09:27:02;;;;;;;14.05;6.65;;;;;;;;;;4882105;29;20052;-81
2023/09/26 09:30:02;;;;;;;17.13;6.63;;;;;;;;;;4882227;29;20048;-82
2023/09/26 09:32:47;;;;;;;13.77;5.78;;;;;;;;;;4877205;29;20056;-83
2023/09/26 09:35:33;;;;;;;21.85;5.82;;;;;;;;;;4879161;29;20056;-82
2023/09/26 09:38:19;;;;;;;17.30;5.53;;;;;;;;;;4875511;29;20052;-80
2023/09/26 09:41:04;;;;;;;15.73;5.05;;;;;;;;;;4880763;29;20476;-81
2023/09/26 09:43:50;;;;;;;13.45;5.50;;;;;;;;;;4882057;29;20052;-82
2023/09/26 09:46:40;;;;;;;13.55;5.97;;;;;;;;;;4875245;29;20048;-82
2023/09/26 09:49:31;;;;;;;20.15;5.68;;;;;;;;;;4854352;29;20060;-82
2023/09/26 09:52:21;;;;;;;15.77;5.97;;;;;;;;;;4875125;29;20045;-81
2023/09/26 09:55:13;;;;;;;13.55;5.90;;;;;;;;;;4875324;29;20033;-83
2023/09/26 09:58:02;;;;;;;15.32;5.82;;;;;;;;;;4881646;29;20037;-82
2023/09/26 10:00:48;;;;;;;12.55;5.40;;;;;;;;;;4874511;29;20045;-83
2023/09/26 10:03:35;;;;;;;20.45;6.38;;;;;;;;;;4874847;29;20480;-84
2023/09/26 10:06:20;;;;;;;17.33;6.05;;;;;;;;;;4873492;29;20057;-80
2023/09/26 10:09:06;;;;;;;15.43;6.10;;;;;;;;;;4880968;29;20045;-83
2023/09/26 10:11:54;;;;;;;16.08;5.63;;;;;;;;;;4864398;29;20056;-81
2023/09/26 10:14:39;;;;;;;15.30;5.25;;;;;;;;;;4870359;29;20041;-83
2023/09/26 10:17:25;;;;;;;18.23;5.90;;;;;;;;;;4869566;29;20078;-81
2023/09/26 10:20:11;;;;;;;23.77;6.70;;;;;;;;;;4875978;29;20056;-83
2023/09/26 10:23:10;;;;;;;18.48;6.30;;;;;;;;;;4870325;29;20044;-81
2023/09/26 10:25:55;;;;;;;15.65;5.90;;;;;;;;;;4862750;29;20060;-81
2023/09/26 10:28:42;;;;;;;13.55;6.15;;;;;;;;;;4877025;29;20044;-83
2023/09/26 10:31:28;;;;;;;16.42;5.82;;;;;;;;;;4877230;29;20790;-81
2023/09/26 10:34:15;;;;;;;14.00;5.93;;;;;;;;;;4869583;29;20417;-80
2023/09/26 10:37:00;;;;;;;14.10;6.10;;;;;;;;;;4876249;29;20052;-80
2023/09/26 10:39:46;;;;;;;18.50;5.90;;;;;;;;;;4875654;29;20067;-81
2023/09/26 10:42:31;;;;;;;16.60;5.57;;;;;;;;;;4876726;29;20467;-83
2023/09/26 10:45:17;;;;;;;29.92;6.05;;;;;;;;;;4874802;29;20052;-83
2023/09/26 10:48:05;;;;;;;12.85;5.50;;;;;;;;;;4868142;29;20048;-83
2023/09/26 10:50:51;;;;;;;16.58;5.68;;;;;;;;;;4869128;29;20400;-82
2023/09/26 10:53:36;;;;;;;16.83;6.63;;;;;;;;;;4876648;29;20053;-80
2023/09/26 10:56:22;;;;;;;21.23;6.00;;;;;;;;;;4876347;29;20044;-80
2023/09/26 10:59:08;;;;;;;11.85;5.10;;;;;;;;;;4876725;29;20048;-81
2023/09/26 11:01:59;;;;;;;14.20;5.50;;;;;;;;;;4875957;29;20037;-82
2023/09/26 11:04:44;;;;;;;20.90;5.72;;;;;;;;;;4874917;29;20756;-82
2023/09/26 11:07:29;;;;;;;17.85;5.63;;;;;;;;;;4870876;29;20053;-81
2023/09/26 11:10:15;;;;;;;17.10;5.47;;;;;;;;;;4877686;29;20064;-83
2023/09/26 11:13:02;;;;;;;14.32;5.60;;;;;;;;;;4875762;29;20044;-82
2023/09/26 11:15:55;;;;;;;17.67;6.07;;;;;;;;;;4861094;29;20469;-80
2023/09/26 11:18:40;;;;;;;20.92;5.28;;;;;;;;;;4876148;29;20052;-82
2023/09/26 11:21:25;;;;;;;16.58;5.55;;;;;;;;;;4876133;29;20056;-83
2023/09/26 11:24:37;;;;;;;17.90;5.75;;;;;;;;;;4874906;29;20392;-82
2023/09/26 11:27:23;;;;;;;13.70;4.93;;;;;;;;;;4866212;29;20040;-80
2023/09/26 11:30:13;;;;;;;12.88;5.60;;;;;;;;;;4873508;29;20064;-82
2023/09/26 11:32:59;;;;;;;15.60;5.72;;;;;;;;;;4867112;29;20431;-80
2023/09/26 11:35:44;;;;;;;14.45;5.97;;;;;;;;;;4869314;29;20041;-81
2023/09/26 11:38:30;;;;;;;13.43;5.03;;;;;;;;;;4874651;29;20048;-81
2023/09/26 11:41:15;;;;;;;15.60;5.30;;;;;;;;;;4874935;29;20045;-79
2023/09/26 11:44:12;;;;;;;16.52;5.30;;;;;;;;;;4860316;29;20052;-81
2023/09/26 11:46:58;;;;;;;21.98;5.75;;;;;;;;;;4868200;29;20044;-82
2023/09/26 11:49:43;;;;;;;13.50;5.65;;;;;;;;;;4875092;29;20484;-82
2023/09/26 11:52:29;;;;;;;15.93;5.65;;;;;;;;;;4861269;29;20528;-82
2023/09/26 11:55:18;;;;;;;14.43;5.22;;;;;;;;;;4861356;29;20052;-83
2023/09/26 11:58:04;;;;;;;14.98;4.97;;;;;;;;;;4871141;29;20472;-82
2023/09/26 12:00:50;;;;;;;15.73;5.45;;;;;;;;;;4872107;29;20049;-80
2023/09/26 12:03:36;;;;;;;15.75;4.35;;;;;;;;;;4872395;29;20052;-80
2023/09/26 12:06:22;;;;;;;13.73;4.88;;;;;;;;;;4879405;29;20048;-81
2023/09/26 12:09:17;;;;;;;14.75;3.10;;;;;;;;;;4882948;29;20076;-82
2023/09/26 12:12:03;;;;;;;16.88;3.38;;;;;;;;;;4882304;29;20050;-82
2023/09/26 12:14:48;;;;;;;9.10;3.50;;;;;;;;;;4877657;29;20041;-79
2023/09/26 12:17:34;;;;;;;6.40;2.90;;;;;;;;;;4870284;29;20433;-82
2023/09/26 12:20:24;;;;;;;15.57;4.00;;;;;;;;;;4877361;29;20045;-79
2023/09/26 12:23:12;;;;;;;18.27;3.63;;;;;;;;;;4884581;29;20048;-80
2023/09/26 12:25:59;;;;;;;9.40;3.15;;;;;;;;;;4874314;29;20053;-79
2023/09/26 12:28:44;;;;;;;11.57;3.40;;;;;;;;;;4878750;29;20048;-78
2023/09/26 12:31:30;;;;;;;17.45;3.85;;;;;;;;;;4876420;29;20408;-80
2023/09/26 12:34:16;;;;;;;14.20;3.90;;;;;;;;;;4873797;29;20041;-78
2023/09/26 12:37:01;;;;;;;8.68;3.50;;;;;;;;;;4877743;29;20056;-78
2023/09/26 12:39:47;;;;;;;14.20;3.33;;;;;;;;;;4877747;29;20396;-79
2023/09/26 12:42:32;;;;;;;6.10;3.05;;;;;;;;;;4871828;29;20048;-80
2023/09/26 12:45:18;;;;;;;9.63;3.47;;;;;;;;;;4877851;29;20056;-82
2023/09/26 12:48:04;;;;;;;9.68;3.40;;;;;;;;;;4879105;29;20524;-79
2023/09/26 12:50:49;;;;;;;20.60;3.35;;;;;;;;;;4879085;29;20536;-81
2023/09/26 12:53:34;;;;;;;11.02;3.60;;;;;;;;;;4871274;29;20457;-82
2023/09/26 12:56:19;;;;;;;8.40;3.10;;;;;;;;;;4871692;29;20041;-80
2023/09/26 12:59:04;;;;;;;9.23;3.03;;;;;;;;;;4877164;29;20045;-80
2023/09/26 13:01:49;;;;;;;11.65;2.97;;;;;;;;;;4878361;29;20535;-78
2023/09/26 13:04:35;;;;;;;13.60;3.10;;;;;;;;;;4877979;29;20052;-78
2023/09/26 13:07:22;;;;;;;10.73;2.95;;;;;;;;;;4863420;29;20045;-79
2023/09/26 13:10:09;;;;;;;6.93;2.50;;;;;;;;;;4878235;29;20513;-81
2023/09/26 13:12:55;;;;;;;11.18;3.13;;;;;;;;;;4877686;29;20396;-80
2023/09/26 13:15:40;;;;;;;9.02;2.70;;;;;;;;;;4877387;29;20056;-77
2023/09/26 13:18:26;;;;;;;9.45;3.33;;;;;;;;;;4877075;29;20044;-79
2023/09/26 13:21:11;;;;;;;8.82;3.10;;;;;;;;;;4871202;29;20408;-80
2023/09/26 13:23:57;;;;;;;9.32;3.20;;;;;;;;;;4871169;29;20052;-81
2023/09/26 13:26:46;;;;;;;9.65;2.95;;;;;;;;;;4878161;29;20481;-80
2023/09/26 13:29:33;;;;;;;9.57;2.60;;;;;;;;;;4877771;29;20452;-79
2023/09/26 13:32:18;;;;;;;9.60;2.67;;;;;;;;;;4871307;29;20491;-79
2023/09/26 13:35:04;;;;;;;12.68;3.08;;;;;;;;;;4878437;29;20048;-78
2023/09/26 13:37:49;;;;;;;7.90;2.80;;;;;;;;;;4878051;29;20040;-78
2023/09/26 13:40:34;;;;;;;11.68;3.08;;;;;;;;;;4871015;29;20407;-79
2023/09/26 13:43:20;;;;;;;20.63;3.50;;;;;;;;;;4871052;29;20408;-80
2023/09/26 13:46:06;;;;;;;15.07;3.55;;;;;;;;;;4876529;29;20052;-80
2023/09/26 13:48:51;;;;;;;16.48;3.60;;;;;;;;;;4876349;29;20048;-80
2023/09/26 13:51:37;;;;;;;10.23;3.47;;;;;;;;;;4876831;29;20056;-79
2023/09/26 13:54:22;;;;;;;8.82;3.20;;;;;;;;;;4875887;29;20044;-79
2023/09/26 13:57:08;;;;;;;10.13;2.80;;;;;;;;;;4876668;29;20411;-78
2023/09/26 13:59:54;;;;;;;10.68;3.20;;;;;;;;;;4877073;29;20052;-78
2023/09/26 14:02:39;;;;;;;10.32;3.10;;;;;;;;;;4871034;29;20460;-78
2023/09/26 14:05:25;;;;;;;9.90;3.42;;;;;;;;;;4870229;29;20400;-79
2023/09/26 14:08:10;;;;;;;10.75;3.00;;;;;;;;;;4877138;29;20424;-79
2023/09/26 14:10:56;;;;;;;11.98;3.95;;;;;;;;;;4877030;29;20052;-80
2023/09/26 14:13:41;;;;;;;10.98;2.60;;;;;;;;;;4876188;29;20388;-79
2023/09/26 14:16:27;;;;;;;6.03;2.53;;;;;;;;;;4877119;29;20048;-78
2023/09/26 14:19:12;;;;;;;10.98;3.10;;;;;;;;;;4870499;29;20033;-79
2023/09/26 14:21:58;;;;;;;9.32;3.60;;;;;;;;;;4874103;29;20052;-81
2023/09/26 14:24:44;;;;;;;12.05;2.90;;;;;;;;;;4878801;29;20040;-79
2023/09/26 14:27:29;;;;;;;13.30;2.55;;;;;;;;;;4881504;29;20476;-78
2023/09/26 14:30:15;;;;;;;6.65;2.80;;;;;;;;;;4872799;29;20060;-79
2023/09/26 14:33:03;;;;;;;11.43;2.97;;;;;;;;;;4878357;29;20420;-80
2023/09/26 14:35:48;;;;;;;11.45;3.38;;;;;;;;;;4872596;29;20041;-80
2023/09/26 14:38:34;;;;;;;10.50;3.70;;;;;;;;;;4880479;29;20396;-82
2023/09/26 14:41:19;;;;;;;13.00;3.00;;;;;;;;;;4859550;29;20733;-81
2023/09/26 14:44:05;;;;;;;14.60;3.05;;;;;;;;;;4878152;29;20474;-81
2023/09/26 14:46:51;;;;;;;12.57;3.30;;;;;;;;;;4880730;29;20424;-80
2023/09/26 14:49:36;;;;;;;7.07;3.00;;;;;;;;;;4880639;29;20469;-80
2023/09/26 14:52:21;;;;;;;19.70;3.53;;;;;;;;;;4879652;29;20048;-82
2023/09/26 14:55:07;;;;;;;18.70;3.33;;;;;;;;;;4880247;29;20052;-80
2023/09/26 14:57:52;;;;;;;15.85;3.40;;;;;;;;;;4879668;29;20040;-81
2023/09/26 15:00:43;;;;;;;11.70;2.92;;;;;;;;;;4879044;29;20457;-78
2023/09/26 15:03:28;;;;;;;10.48;3.08;;;;;;;;;;4880669;29;20052;-80
2023/09/26 15:06:14;;;;;;;11.63;3.20;;;;;;;;;;4873462;29;20476;-81
2023/09/26 15:08:59;;;;;;;14.93;3.25;;;;;;;;;;4879445;29;20061;-81
2023/09/26 15:11:45;;;;;;;11.02;3.45;;;;;;;;;;4880791;29;20048;-81
2023/09/26 15:14:30;;;;;;;10.85;3.42;;;;;;;;;;4876003;29;20493;-81
2023/09/26 15:17:16;;;;;;;14.88;3.85;;;;;;;;;;4876373;29;20045;-81
2023/09/26 15:20:02;;;;;;;9.57;3.35;;;;;;;;;;4874039;29;20057;-80
2023/09/26 15:22:47;;;;;;;13.65;3.33;;;;;;;;;;4875904;29;20484;-80
2023/09/26 15:25:34;;;;;;;11.57;3.30;;;;;;;;;;4874663;29;20049;-80
2023/09/26 15:28:19;;;;;;;9.93;3.17;;;;;;;;;;4875427;29;20457;-80
2023/09/26 15:31:05;;;;;;;10.27;3.35;;;;;;;;;;4876349;29;20044;-79
2023/09/26 15:33:50;;;;;;;14.00;3.67;;;;;;;;;;4873597;29;20060;-80
2023/09/26 15:36:36;;;;;;;9.43;3.60;;;;;;;;;;4872807;29;20044;-85
2023/09/26 15:39:23;;;;;;;10.52;3.47;;;;;;;;;;4877898;29;20456;-80
2023/09/26 15:42:10;;;;;;;12.35;4.10;;;;;;;;;;4872308;29;20044;-80
2023/09/26 15:44:55;;;;;;;12.60;3.75;;;;;;;;;;4878339;29;20048;-80
2023/09/26 15:47:40;;;;;;;7.55;3.60;;;;;;;;;;4878339;29;20048;-80
2023/09/26 15:50:30;;;;;;;10.10;3.45;;;;;;;;;;4872636;29;20044;-85
2023/09/26 15:53:14;;;;;;;10.07;3.67;;;;;;;;;;4878500;29;20404;-80
2023/09/26 15:56:00;;;;;;;12.90;3.70;;;;;;;;;;4878366;29;20044;-80
2023/09/26 15:58:46;;;;;;;11.45;3.78;;;;;;;;;;4878528;29;20052;-80
2023/09/26 16:01:31;;;;;;;7.20;3.45;;;;;;;;;;4871127;29;20488;-80
2023/09/26 16:04:17;;;;;;;15.68;3.90;;;;;;;;;;4872909;29;20048;-79
2023/09/26 16:07:03;;;;;;;16.52;3.95;;;;;;;;;;4879561;29;20048;-78
2023/09/26 16:09:49;;;;;;;11.85;3.67;;;;;;;;;;4870668;29;20048;-81
2023/09/26 16:12:37;;;;;;;15.95;3.67;;;;;;;;;;4878611;29;20052;-83
2023/09/26 16:15:23;;;;;;;8.73;3.42;;;;;;;;;;4878718;29;20052;-81